createdAt,value
2018-03-14T00:01:21.251Z,3.29
2018-03-14T00:07:12.028Z,3.43
2018-03-14T00:13:02.820Z,3.58
2018-03-14T00:18:53.570Z,4.3
2018-03-14T00:24:44.325Z,3.45
2018-03-14T00:30:35.040Z,4.16
2018-03-14T00:36:25.775Z,4.37
2018-03-14T00:42:16.569Z,4.33
2018-03-14T00:48:07.310Z,4.42
2018-03-14T00:53:58.084Z,4.12
2018-03-14T00:59:48.798Z,4.39
2018-03-14T01:05:39.597Z,3.86
2018-03-14T01:11:30.352Z,3.98
2018-03-14T01:17:21.104Z,4.65
2018-03-14T01:23:11.795Z,4.15
2018-03-14T01:29:02.570Z,4.22
2018-03-14T01:34:53.336Z,4.61
2018-03-14T01:40:44.084Z,5.09
2018-03-14T01:46:34.836Z,4.62
2018-03-14T01:52:25.561Z,4.29
2018-03-14T01:58:16.316Z,4.47
2018-03-14T02:04:07.088Z,5.62
2018-03-14T02:09:57.860Z,5.2
2018-03-14T02:15:48.598Z,4.59
2018-03-14T02:21:39.358Z,3.8
2018-03-14T02:27:30.122Z,4.38
2018-03-14T02:33:20.905Z,4.16
2018-03-14T02:39:11.599Z,4.09
2018-03-14T02:45:02.382Z,4.61
2018-03-14T02:50:53.116Z,4.76
2018-03-14T02:56:43.864Z,4.25
2018-03-14T03:02:34.615Z,4.19
2018-03-14T03:08:25.376Z,4.54
2018-03-14T03:14:16.123Z,4.27
2018-03-14T03:20:06.932Z,4.7
2018-03-14T03:25:57.627Z,4.36
2018-03-14T03:31:48.352Z,4.58
2018-03-14T03:37:39.112Z,5.27
2018-03-14T03:43:29.824Z,5.51
2018-03-14T03:49:20.621Z,5.81
2018-03-14T03:55:11.357Z,5.75
2018-03-14T04:01:02.113Z,5.89
2018-03-14T04:06:52.808Z,4.87
2018-03-14T04:12:43.559Z,5.05
2018-03-14T04:18:34.294Z,5.17
2018-03-14T04:24:25.053Z,5.06
2018-03-14T04:30:15.816Z,4.43
2018-03-14T04:36:06.546Z,4.74
2018-03-14T04:41:57.336Z,4.32
2018-03-14T04:47:48.103Z,5.06
2018-03-14T04:53:38.838Z,4.88
2018-03-14T04:59:29.507Z,4.72
2018-03-14T05:05:20.269Z,5.34
2018-03-14T05:11:10.996Z,5.78
2018-03-14T05:17:01.765Z,4.44
2018-03-14T05:22:52.486Z,4.59
2018-03-14T05:28:43.229Z,4.6
2018-03-14T05:34:33.971Z,4.85
2018-03-14T05:40:24.679Z,5.31
2018-03-14T05:46:15.455Z,4.68
2018-03-14T05:52:06.237Z,4.21
2018-03-14T05:57:56.948Z,4.14
2018-03-14T06:03:47.682Z,3.59
2018-03-14T06:09:38.417Z,3.66
2018-03-14T06:15:29.165Z,3.53
2018-03-14T06:21:19.917Z,3.93
2018-03-14T06:27:10.625Z,4.69
2018-03-14T06:33:01.397Z,3.5
2018-03-14T06:38:52.105Z,4.35
2018-03-14T06:44:42.840Z,7.66
2018-03-14T06:50:33.654Z,5.53
2018-03-14T06:56:24.369Z,9.25
2018-03-14T07:02:15.090Z,10.07
2018-03-14T07:08:05.876Z,10.49
2018-03-14T07:13:56.619Z,10.66
2018-03-14T07:19:47.387Z,10.98
2018-03-14T07:25:38.153Z,9.39
2018-03-14T07:31:28.880Z,8.11
2018-03-14T07:37:19.643Z,7.76
2018-03-14T07:43:10.375Z,8
2018-03-14T07:49:01.156Z,8.1
2018-03-14T07:54:51.960Z,8.19
2018-03-14T08:00:42.674Z,8.23
2018-03-14T08:06:33.485Z,7.41
2018-03-14T08:12:24.242Z,6.63
2018-03-14T08:18:15.026Z,6.49
2018-03-14T08:24:05.817Z,5.97
2018-03-14T08:29:56.597Z,5.68
2018-03-14T08:35:47.386Z,6.52
2018-03-14T08:41:38.174Z,7.04
2018-03-14T08:47:29.022Z,8.8
2018-03-14T08:53:19.731Z,8.14
2018-03-14T08:59:10.530Z,8.04
2018-03-14T09:05:01.345Z,10.26
2018-03-14T09:10:52.108Z,9.2
2018-03-14T09:16:42.919Z,7.78
2018-03-14T09:22:33.713Z,5.88
2018-03-14T09:28:24.513Z,7.03
2018-03-14T09:34:15.312Z,8.27
2018-03-14T09:40:06.105Z,10.26
2018-03-14T09:45:56.956Z,11.13
2018-03-14T09:51:47.754Z,10.02
2018-03-14T09:57:38.589Z,8.56
2018-03-14T10:03:29.382Z,8.34
2018-03-14T10:09:20.230Z,7.24
2018-03-14T10:15:11.243Z,6.69
2018-03-14T10:21:01.950Z,6.5
2018-03-14T10:26:52.623Z,5.28
2018-03-14T10:32:43.423Z,4.74
2018-03-14T10:38:34.246Z,4.06
2018-03-14T10:44:25.074Z,2.73
2018-03-14T10:50:15.910Z,2.81
2018-03-14T10:56:06.770Z,2.35
2018-03-14T11:01:57.527Z,2.01
2018-03-14T11:07:48.400Z,2.03
2018-03-14T11:13:39.161Z,3.44
2018-03-14T11:19:29.986Z,2.16
2018-03-14T11:25:20.859Z,2.34
2018-03-14T11:31:11.698Z,7.88
2018-03-14T11:37:02.437Z,3.72
2018-03-14T11:42:53.240Z,2.54
2018-03-14T11:48:44.089Z,2.62
2018-03-14T11:54:34.884Z,2.19
2018-03-14T12:00:25.687Z,2.76
2018-03-14T12:06:16.507Z,2.91
2018-03-14T12:12:07.372Z,2.2
2018-03-14T12:17:58.202Z,2.55
2018-03-14T12:23:48.999Z,1.98
2018-03-14T12:29:39.846Z,2.83
2018-03-14T12:35:30.689Z,1.97
2018-03-14T12:41:21.497Z,1.82
2018-03-14T12:47:12.313Z,2.2
2018-03-14T12:53:03.107Z,2.08
2018-03-14T12:58:53.919Z,1.97
2018-03-14T13:04:44.758Z,1.6
2018-03-14T13:10:35.688Z,2.35
2018-03-14T13:16:26.429Z,1.94
2018-03-14T13:22:17.232Z,2.91
2018-03-14T13:28:08.059Z,3.28
2018-03-14T13:33:58.850Z,3.36
2018-03-14T13:39:49.695Z,2.25
2018-03-14T13:45:40.453Z,2.48
2018-03-14T13:51:31.301Z,2.11
2018-03-14T13:57:22.155Z,2.52
2018-03-14T14:03:12.950Z,2.67
2018-03-14T14:09:03.757Z,1.95
2018-03-14T14:14:54.601Z,1.97
2018-03-14T14:20:45.361Z,1.9
2018-03-14T14:26:36.214Z,5.04
2018-03-14T14:32:27.021Z,2.57
2018-03-14T14:38:17.855Z,1.55
2018-03-14T14:44:08.694Z,1.56
2018-03-14T14:49:59.487Z,2.4
2018-03-14T14:55:50.327Z,2.02
2018-03-14T15:01:41.232Z,2.21
2018-03-14T15:07:31.970Z,1.8
2018-03-14T15:13:22.854Z,2.61
2018-03-14T15:19:13.599Z,1.91
2018-03-14T15:25:04.492Z,1.84
2018-03-14T15:30:55.312Z,1.67
2018-03-14T15:36:46.029Z,1.67
2018-03-14T15:42:36.882Z,1.51
2018-03-14T15:48:27.694Z,1.79
2018-03-14T15:54:18.580Z,1.75
2018-03-14T16:00:09.475Z,2.25
2018-03-14T16:06:00.193Z,2.43
2018-03-14T16:11:50.930Z,1.87
2018-03-14T16:17:41.749Z,2.11
2018-03-14T16:23:32.563Z,2.1
2018-03-14T16:29:23.361Z,2.49
2018-03-14T16:35:14.135Z,2.28
2018-03-14T16:41:04.991Z,1.91
2018-03-14T16:46:55.760Z,2.04
2018-03-14T16:52:46.558Z,1.99
2018-03-14T16:58:37.408Z,2.4
2018-03-14T17:04:28.139Z,2.88
2018-03-14T17:10:19.370Z,2.99
2018-03-14T17:16:09.742Z,2.97
2018-03-14T17:22:00.573Z,5.2
2018-03-14T17:27:51.338Z,4.75
2018-03-14T17:33:42.123Z,3.26
2018-03-14T17:39:32.913Z,3.44
2018-03-14T17:45:23.707Z,3.87
2018-03-14T17:51:14.488Z,3.55
2018-03-14T17:57:05.245Z,3.54
2018-03-14T18:02:56.036Z,4.47
2018-03-14T18:08:46.855Z,4.82
2018-03-14T18:14:37.633Z,7.49
2018-03-14T18:20:28.427Z,5.36
2018-03-14T18:26:19.254Z,7.32
2018-03-14T18:32:09.984Z,10.13
2018-03-14T18:38:00.754Z,6.37
2018-03-14T18:43:51.611Z,6.16
2018-03-14T18:49:42.310Z,5.99
2018-03-14T18:55:33.106Z,5.68
2018-03-14T19:01:23.874Z,5.02
2018-03-14T19:07:14.621Z,7.33
2018-03-14T19:13:05.459Z,7.6
2018-03-14T19:18:56.180Z,9.08
2018-03-14T19:24:47.041Z,13.52
2018-03-14T19:30:37.831Z,15.08
2018-03-14T19:36:28.539Z,10.3
2018-03-14T19:42:19.382Z,11.44
2018-03-14T19:48:10.135Z,27.77
2018-03-14T19:54:00.837Z,14.82
2018-03-14T19:59:51.613Z,8.73
2018-03-14T20:05:42.370Z,7.97
2018-03-14T20:11:33.165Z,6.3
2018-03-14T20:17:23.925Z,9.93
2018-03-14T20:23:14.666Z,5.99
2018-03-14T20:29:05.474Z,4.12
2018-03-14T20:34:56.244Z,3.96
2018-03-14T20:40:46.992Z,4.8
2018-03-14T20:46:37.738Z,6.94
2018-03-14T20:52:28.538Z,5.27
2018-03-14T20:58:19.282Z,8.56
2018-03-14T21:04:10.036Z,4.25
2018-03-14T21:10:00.817Z,6.11
2018-03-14T21:15:51.571Z,8.07
2018-03-14T21:21:42.345Z,5.99
2018-03-14T21:27:33.106Z,5.83
2018-03-14T21:33:23.852Z,6.15
2018-03-14T21:39:14.794Z,11.15
2018-03-14T21:45:05.402Z,9.3
2018-03-14T21:50:56.178Z,9.99
2018-03-14T21:56:46.899Z,5.53
2018-03-14T22:02:37.664Z,6.44
2018-03-14T22:08:28.423Z,5.55
2018-03-14T22:14:19.236Z,4.48
2018-03-14T22:20:09.917Z,5.07
2018-03-14T22:26:00.718Z,5.35
2018-03-14T22:31:51.507Z,5.12
2018-03-14T22:37:42.210Z,6.11
2018-03-14T22:43:32.949Z,5.04
2018-03-14T22:49:23.774Z,5.44
2018-03-14T22:55:14.555Z,5.94
2018-03-14T23:01:05.240Z,4.95
2018-03-14T23:06:56.022Z,4.45
2018-03-14T23:12:46.742Z,5.4
2018-03-14T23:18:37.489Z,6.75
2018-03-14T23:24:28.236Z,5.4
2018-03-14T23:30:18.979Z,5.57
2018-03-14T23:36:09.758Z,5.85
2018-03-14T23:42:00.524Z,6.32
2018-03-14T23:47:51.245Z,6.04
2018-03-14T23:53:42.025Z,6.5
2018-03-14T23:59:32.764Z,5.36
